Time;durP1;ratioP1;P1;durP2;ratioP2;P2;SDS_P1;SDS_P2;PMS_P1;PMS_P2;Temp;Humidity;BMP_temperature;BMP_pressure;BME280_temperature;BME280_humidity;BME280_pressure;Samples;Min_cycle;Max_cycle;Signal;HPM_P1;HPM_P2
2022/06/20 00:02:26;;;;;;;2.85;2.02;;;25.40;73.80;;;;;;1881397;75;21043;-91
2022/06/20 00:05:20;;;;;;;4.90;2.00;;;25.30;74.90;;;;;;1873380;75;21111;-91
2022/06/20 00:08:13;;;;;;;3.92;1.67;;;25.30;74.80;;;;;;1885583;75;21578;-93
2022/06/20 00:13:44;;;;;;;4.05;1.90;;;25.30;75.20;;;;;;1942298;72;22154;-85
2022/06/20 00:16:54;;;;;;;6.92;1.87;;;25.30;75.70;;;;;;1890226;75;21114;-85
2022/06/20 00:20:05;;;;;;;5.15;2.02;;;25.30;75.80;;;;;;1888161;75;21152;-85
2022/06/20 00:22:58;;;;;;;3.90;1.95;;;25.30;75.90;;;;;;1890402;75;21094;-85
2022/06/20 00:26:08;;;;;;;8.50;2.30;;;25.20;76.70;;;;;;1881227;75;21105;-85
2022/06/20 00:29:01;;;;;;;7.47;2.35;;;25.20;77.10;;;;;;1875820;75;21527;-85
2022/06/20 00:34:32;;;;;;;5.65;2.02;;;25.20;77.80;;;;;;1930019;72;22206;-90
2022/06/20 00:37:42;;;;;;;6.67;1.92;;;25.10;78.00;;;;;;1874123;75;21120;-91
2022/06/20 00:40:55;;;;;;;5.83;2.12;;;25.10;78.60;;;;;;1840386;77;21082;-91
2022/06/20 00:43:49;;;;;;;6.33;2.20;;;25.10;78.60;;;;;;1890374;75;21051;-91
2022/06/20 00:47:02;;;;;;;5.80;2.20;;;25.10;78.60;;;;;;1883865;75;21022;-91
2022/06/20 00:52:49;;;;;;;2.67;2.08;;;25.10;79.20;;;;;;1943685;72;22083;-90
2022/06/20 00:58:48;;;;;;;5.17;2.62;;;25.00;81.00;;;;;;1935882;72;22143;-85
2022/06/20 01:02:00;;;;;;;4.28;2.02;;;24.90;81.20;;;;;;1884880;75;21151;-85
2022/06/20 01:05:15;;;;;;;2.72;1.82;;;24.90;82.10;;;;;;1884796;75;21081;-84
2022/06/20 01:08:10;;;;;;;7.10;2.30;;;24.90;81.80;;;;;;1901228;75;21108;-85
2022/06/20 01:11:22;;;;;;;3.75;1.85;;;25.10;80.50;;;;;;1899727;75;21047;-85
2022/06/20 01:14:26;;;;;;;8.30;2.83;;;25.20;80.30;;;;;;1906626;75;21094;-85
2022/06/20 01:17:22;;;;;;;5.03;2.08;;;25.30;80.10;;;;;;1907894;75;21100;-85
2022/06/20 01:20:24;;;;;;;4.10;1.85;;;25.20;80.70;;;;;;1884609;75;21091;-85
2022/06/20 01:23:23;;;;;;;6.70;2.42;;;25.10;81.10;;;;;;1897713;75;21052;-90
2022/06/20 01:26:39;;;;;;;7.33;2.47;;;25.10;80.90;;;;;;1895880;75;21585;-90
2022/06/20 01:29:30;;;;;;;5.00;2.30;;;25.20;81.00;;;;;;1896336;75;21109;-90
2022/06/20 01:32:28;;;;;;;4.78;2.35;;;25.50;79.50;;;;;;1895378;75;21055;-91
2022/06/20 01:38:12;;;;;;;8.65;2.37;;;25.60;78.50;;;;;;1946784;72;22209;-90
2022/06/20 01:44:53;;;;;;;5.60;2.40;;;25.80;78.00;;;;;;1924442;73;21086;-91
2022/06/20 01:47:45;;;;;;;9.13;3.10;;;25.90;77.60;;;;;;1919495;73;21081;-91
2022/06/20 01:53:38;;;;;;;10.38;2.77;;;26.20;76.50;;;;;;1947295;72;22216;-90
2022/06/20 01:59:33;;;;;;;5.72;2.20;;;25.90;78.00;;;;;;1953443;72;22335;-91
2022/06/20 02:02:47;;;;;;;7.67;2.30;;;25.60;79.00;;;;;;1928775;73;21092;-91
2022/06/20 02:08:44;;;;;;;7.22;2.22;;;25.10;82.20;;;;;;1950973;72;22115;-91
2022/06/20 02:11:53;;;;;;;7.12;2.15;;;25.00;82.50;;;;;;1934035;73;21112;-90
2022/06/20 02:15:04;;;;;;;10.75;2.87;;;25.00;82.50;;;;;;1929713;73;21089;-91
2022/06/20 02:17:57;;;;;;;9.80;2.55;;;25.00;82.90;;;;;;1940007;73;21055;-91
2022/06/20 02:23:51;;;;;;;7.97;3.20;;;25.10;82.20;;;;;;1940149;72;22130;-90
2022/06/20 02:27:02;;;;;;;7.90;2.40;;;25.30;81.40;;;;;;1886788;75;21123;-90
2022/06/20 02:30:14;;;;;;;7.28;2.20;;;25.40;81.40;;;;;;1876511;75;21152;-90
2022/06/20 02:33:09;;;;;;;5.25;2.62;;;25.30;81.90;;;;;;1886281;75;21177;-90
2022/06/20 02:36:19;;;;;;;5.92;2.40;;;25.00;83.70;;;;;;1870671;75;21051;-84
2022/06/20 02:39:10;;;;;;;4.17;2.00;;;24.90;84.50;;;;;;1884485;75;21147;-84
2022/06/20 02:42:05;;;;;;;5.70;2.20;;;24.80;84.80;;;;;;1891810;75;21051;-85
2022/06/20 02:44:57;;;;;;;4.58;2.50;;;24.70;85.30;;;;;;1868496;75;21060;-91
2022/06/20 02:50:33;;;;;;;5.20;2.00;;;24.40;88.00;;;;;;1950957;72;22137;-85
2022/06/20 02:53:47;;;;;;;5.05;2.15;;;24.20;88.80;;;;;;1918183;73;21644;-85
2022/06/20 02:57:00;;;;;;;4.55;2.00;;;24.10;89.70;;;;;;1946145;73;21090;-85
2022/06/20 02:59:54;;;;;;;5.65;1.75;;;24.00;90.20;;;;;;1931870;73;21050;-85
2022/06/20 03:03:09;;;;;;;5.17;1.95;;;23.90;90.40;;;;;;1884977;75;21559;-91
2022/06/20 03:06:27;;;;;;;8.50;2.10;;;24.00;90.30;;;;;;1940171;73;21080;-91
2022/06/20 03:09:22;;;;;;;3.90;2.30;;;24.00;90.20;;;;;;1918807;73;21161;-90
2022/06/20 03:12:14;;;;;;;4.37;1.80;;;24.00;90.70;;;;;;1932304;73;21131;-91
2022/06/20 03:15:08;;;;;;;3.95;1.90;;;23.80;91.30;;;;;;1918210;75;21119;-91
2022/06/20 03:18:00;;;;;;;5.60;1.70;;;23.60;91.80;;;;;;1916002;73;21047;-90
2022/06/20 03:24:07;;;;;;;6.15;1.85;;;23.50;92.20;;;;;;1993079;71;22124;-91
2022/06/20 03:27:20;;;;;;;5.87;1.80;;;23.40;92.60;;;;;;1964159;72;21048;-91
2022/06/20 03:30:33;;;;;;;5.15;1.87;;;23.50;92.70;;;;;;2046318;69;21015;-91
2022/06/20 03:33:25;;;;;;;5.97;2.15;;;23.60;92.60;;;;;;2054255;69;21136;-91
2022/06/20 03:36:35;;;;;;;4.80;1.90;;;23.50;92.80;;;;;;2038910;69;21010;-91
2022/06/20 03:39:27;;;;;;;6.17;2.00;;;23.50;92.60;;;;;;2035025;70;21018;-92
2022/06/20 03:42:19;;;;;;;3.42;1.85;;;23.30;92.90;;;;;;2036011;69;21026;-90
2022/06/20 03:45:14;;;;;;;4.28;1.85;;;23.30;93.10;;;;;;2035815;69;21015;-91
2022/06/20 03:48:09;;;;;;;2.80;1.75;;;23.40;93.20;;;;;;2059003;69;21098;-91
2022/06/20 03:51:07;;;;;;;3.67;1.70;;;23.30;93.40;;;;;;2033248;70;21105;-91
2022/06/20 03:54:01;;;;;;;5.45;1.80;;;23.20;93.60;;;;;;2040651;69;21155;-91
2022/06/20 03:56:56;;;;;;;4.47;1.95;;;23.10;93.90;;;;;;2043299;69;21062;-91
2022/06/20 03:59:52;;;;;;;3.12;1.80;;;23.00;94.20;;;;;;2048231;69;21146;-91
2022/06/20 04:05:27;;;;;;;5.22;2.33;;;22.90;95.00;;;;;;1943340;72;22131;-90
2022/06/20 04:14:57;;;;;;;4.92;1.90;;;22.70;96.10;;;;;;1942944;72;22179;-85
2022/06/20 04:18:28;;;;;;;4.17;1.52;;;22.80;96.30;;;;;;1932613;73;21142;-84
2022/06/20 04:21:42;;;;;;;5.05;1.75;;;22.70;96.70;;;;;;1917571;75;21063;-84
2022/06/20 04:24:36;;;;;;;3.52;1.65;;;22.70;96.90;;;;;;1928741;73;21130;-82
2022/06/20 04:30:28;;;;;;;4.28;2.62;;;22.70;97.40;;;;;;1937773;72;22106;-76
2022/06/20 04:33:41;;;;;;;5.30;1.90;;;22.60;97.50;;;;;;1890596;75;21157;-77
2022/06/20 04:36:56;;;;;;;5.58;1.98;;;22.70;97.70;;;;;;1891471;75;21094;-78
2022/06/20 04:39:50;;;;;;;3.02;1.75;;;22.70;97.80;;;;;;1902671;73;21160;-79
2022/06/20 04:43:03;;;;;;;3.58;1.90;;;22.70;98.30;;;;;;1902696;75;21026;-78
2022/06/20 04:48:34;;;;;;;4.97;1.85;;;22.70;98.40;;;;;;1941521;72;22101;-86
2022/06/20 04:51:46;;;;;;;2.25;1.60;;;22.80;98.70;;;;;;1931544;73;21734;-81
2022/06/20 04:54:56;;;;;;;2.35;1.60;;;22.80;98.50;;;;;;1946846;73;21105;-81
2022/06/20 04:57:48;;;;;;;4.08;2.02;;;22.80;98.80;;;;;;1920144;73;21636;-81
2022/06/20 05:03:40;;;;;;;3.08;1.95;;;22.80;99.10;;;;;;1951688;72;22178;-77
2022/06/20 05:06:50;;;;;;;3.05;1.75;;;22.80;99.20;;;;;;1874354;75;21065;-77
2022/06/20 05:10:02;;;;;;;2.87;1.57;;;22.80;99.50;;;;;;1903291;75;21080;-80
2022/06/20 05:12:57;;;;;;;3.55;1.70;;;22.80;99.70;;;;;;1881025;75;21141;-82
2022/06/20 05:16:12;;;;;;;4.05;1.70;;;22.80;99.90;;;;;;1878920;75;21099;-82
2022/06/20 05:19:08;;;;;;;5.08;1.80;;;22.80;99.90;;;;;;1883963;75;21149;-78
2022/06/20 05:22:02;;;;;;;3.87;1.82;;;22.80;99.90;;;;;;1873204;75;21144;-78
2022/06/20 05:24:56;;;;;;;6.35;2.37;;;22.80;99.90;;;;;;1869114;75;21111;-80
2022/06/20 05:27:50;;;;;;;5.65;2.15;;;22.80;99.90;;;;;;1884152;75;21139;-81
2022/06/20 05:33:24;;;;;;;4.97;1.98;;;22.70;99.90;;;;;;1925905;72;22158;-81
2022/06/20 05:36:37;;;;;;;5.65;1.82;;;22.70;99.90;;;;;;1899873;75;21050;-81
2022/06/20 05:39:49;;;;;;;3.22;1.87;;;22.80;99.90;;;;;;1901725;75;21124;-81
2022/06/20 05:42:41;;;;;;;4.50;1.92;;;22.80;99.90;;;;;;1894127;75;21055;-81
2022/06/20 05:48:33;;;;;;;4.17;2.55;;;22.90;99.90;;;;;;1911049;72;22175;-81
2022/06/20 05:51:46;;;;;;;3.60;1.92;;;22.90;99.90;;;;;;1896970;75;21137;-81
2022/06/20 05:54:59;;;;;;;4.85;1.85;;;23.00;99.90;;;;;;1906124;75;21592;-81
2022/06/20 05:57:52;;;;;;;9.70;2.02;;;22.90;99.90;;;;;;1897442;75;21058;-81
2022/06/20 06:01:13;;;;;;;4.72;2.00;;;23.00;99.90;;;;;;1887177;74;21204;-80
2022/06/20 07:02:23;;;;;;;5.53;2.33;;;24.80;99.50;;;;;;1936561;72;22493;-80
2022/06/20 07:08:22;;;;;;;7.12;2.42;;;25.00;99.60;;;;;;1934719;72;22140;-81
2022/06/20 07:14:16;;;;;;;5.75;1.90;;;25.10;99.20;;;;;;1931200;72;22260;-81
2022/06/20 07:17:29;;;;;;;4.75;2.20;;;25.10;98.80;;;;;;1908549;75;21521;-81
2022/06/20 07:23:26;;;;;;;6.53;2.30;;;25.30;98.90;;;;;;1962945;72;22748;-81
2022/06/20 07:26:40;;;;;;;5.03;2.00;;;25.40;98.60;;;;;;1930093;73;21130;-81
2022/06/20 07:29:53;;;;;;;7.40;2.12;;;25.50;98.20;;;;;;1933884;73;21484;-80
2022/06/20 07:32:48;;;;;;;4.58;2.00;;;25.60;98.20;;;;;;1934791;73;21064;-80
2022/06/20 07:36:02;;;;;;;7.22;2.12;;;25.70;98.00;;;;;;1918941;73;21563;-81
2022/06/20 07:38:58;;;;;;;3.87;2.10;;;25.70;97.40;;;;;;1929497;73;21130;-80
2022/06/20 07:44:32;;;;;;;6.00;1.90;;;25.90;97.20;;;;;;1939249;72;22111;-80
2022/06/20 07:50:28;;;;;;;4.42;2.17;;;26.20;96.40;;;;;;1926036;72;22256;-79
2022/06/20 07:53:43;;;;;;;4.65;2.12;;;26.20;96.30;;;;;;1902445;74;21113;-79
2022/06/20 07:59:36;;;;;;;6.20;2.35;;;26.50;95.90;;;;;;1949098;72;22153;-80
2022/06/20 08:02:49;;;;;;;7.17;2.58;;;26.50;95.60;;;;;;1888775;75;21047;-80
2022/06/20 08:06:02;;;;;;;7.00;2.95;;;26.70;95.60;;;;;;1894478;75;21106;-80
2022/06/20 08:11:40;;;;;;;4.78;2.08;;;26.90;95.50;;;;;;1941091;72;22803;-80
2022/06/20 08:17:36;;;;;;;4.60;2.30;;;27.00;94.00;;;;;;1931762;72;27949;-83
2022/06/20 08:23:27;;;;;;;5.20;2.52;;;27.10;93.90;;;;;;1925885;72;22243;-83
2022/06/20 08:26:41;;;;;;;5.97;2.60;;;27.10;93.50;;;;;;1895632;73;21092;-84
2022/06/20 08:29:54;;;;;;;7.95;2.12;;;27.20;93.00;;;;;;1898445;75;21046;-84
2022/06/20 08:32:52;;;;;;;5.42;3.08;;;27.20;92.80;;;;;;1904156;74;21335;-84
2022/06/20 08:36:04;;;;;;;2.85;2.20;;;27.20;92.60;;;;;;1893463;75;21078;-83
2022/06/20 08:38:59;;;;;;;7.58;2.58;;;27.30;92.30;;;;;;1884894;75;21559;-83
2022/06/20 08:42:21;;;;;;;5.67;2.22;;;27.20;92.70;;;;;;1898845;75;21101;-82
2022/06/20 08:45:26;;;;;;;6.58;2.08;;;27.30;92.80;;;;;;1883987;75;21478;-83
2022/06/20 08:54:29;;;;;;;6.27;2.40;;;27.30;92.30;;;;;;1931480;72;32099;-82
2022/06/20 08:57:47;;;;;;;5.25;1.62;;;27.40;92.10;;;;;;1915835;74;21114;-82
2022/06/20 09:04:00;;;;;;;7.40;2.02;;;27.40;92.10;;;;;;1942585;72;22305;-82
2022/06/20 09:07:17;;;;;;;;;;;27.60;92.00;;;;;;1907042;74;21159;-82
2022/06/20 09:14:00;;;;;;;3.75;2.30;;;27.60;91.30;;;;;;1895333;73;27995;-83
2022/06/20 09:20:06;;;;;;;6.05;2.40;;;27.70;91.20;;;;;;1940885;72;22157;-81
2022/06/20 09:23:26;;;;;;;6.83;2.52;;;27.80;91.10;;;;;;1916963;73;21122;-83
2022/06/20 09:26:42;;;;;;;5.53;2.20;;;27.90;90.80;;;;;;1920604;73;21148;-82
2022/06/20 09:30:10;;;;;;;4.72;1.92;;;28.10;90.60;;;;;;1918092;73;21165;-82
2022/06/20 09:33:55;;;;;;;6.92;2.00;;;28.20;90.00;;;;;;1937724;73;21181;-82
2022/06/20 09:37:11;;;;;;;4.37;2.05;;;28.20;88.80;;;;;;1917134;75;21165;-82
2022/06/20 09:43:06;;;;;;;2.52;1.65;;;28.20;88.20;;;;;;1943684;72;22139;-81
2022/06/20 09:49:26;;;;;;;6.00;2.00;;;28.50;88.40;;;;;;1942224;72;22938;-83
2022/06/20 09:52:40;;;;;;;6.28;2.17;;;28.50;87.90;;;;;;1908185;74;21059;-85
2022/06/20 09:58:43;;;;;;;6.45;2.12;;;28.60;86.60;;;;;;1932610;72;22246;-83
2022/06/20 10:04:35;;;;;;;8.08;2.35;;;28.70;86.40;;;;;;1947118;72;22268;-81
2022/06/20 10:10:31;;;;;;;3.55;2.27;;;28.70;87.70;;;;;;1955272;72;22118;-82
2022/06/20 10:16:28;;;;;;;7.97;2.50;;;28.80;86.50;;;;;;1939388;72;28534;-81
2022/06/20 10:19:47;;;;;;;5.10;2.10;;;28.90;86.50;;;;;;1899889;75;21700;-81
2022/06/20 10:23:03;;;;;;;4.30;1.92;;;29.10;86.20;;;;;;1905979;75;21193;-81
2022/06/20 10:29:13;;;;;;;5.10;2.10;;;29.00;86.40;;;;;;1955185;72;22174;-81
2022/06/20 10:32:28;;;;;;;3.45;2.17;;;29.10;84.80;;;;;;1907452;73;21063;-81
2022/06/20 10:35:45;;;;;;;2.70;2.00;;;29.20;85.80;;;;;;1906752;73;21076;-82
2022/06/20 10:38:45;;;;;;;3.50;2.37;;;29.30;85.40;;;;;;1889196;75;21127;-81
2022/06/20 10:42:02;;;;;;;5.33;2.45;;;29.40;85.30;;;;;;1906413;75;21168;-81
2022/06/20 10:45:11;;;;;;;4.95;2.65;;;29.40;84.60;;;;;;1902465;75;21133;-82
2022/06/20 10:48:37;;;;;;;4.55;2.30;;;29.30;85.20;;;;;;1883805;75;21143;-81
2022/06/20 10:51:34;;;;;;;3.85;1.75;;;29.30;85.40;;;;;;1906635;73;21137;-85
2022/06/20 10:54:33;;;;;;;4.10;2.08;;;29.50;84.90;;;;;;1892828;75;21669;-81
2022/06/20 10:57:28;;;;;;;4.30;2.10;;;29.50;84.50;;;;;;1889360;75;21056;-81
2022/06/20 11:00:58;;;;;;;6.10;2.40;;;29.70;85.50;;;;;;1906106;75;21158;-81
2022/06/20 11:04:09;;;;;;;4.70;2.20;;;29.70;84.70;;;;;;1911274;73;21156;-81
2022/06/20 11:07:15;;;;;;;;;;;29.70;83.80;;;;;;1909884;75;21540;-81
2022/06/20 11:10:18;;;;;;;5.85;2.05;;;29.80;83.60;;;;;;1898041;75;20389;-81
2022/06/20 11:13:16;;;;;;;6.37;2.25;;;29.80;83.80;;;;;;1887515;75;21055;-81
2022/06/20 11:16:11;;;;;;;;;;;29.90;83.70;;;;;;1898729;75;21058;-81
2022/06/20 11:19:20;;;;;;;6.95;2.25;;;29.80;83.40;;;;;;1887419;75;20162;-82
2022/06/20 11:22:39;;;;;;;5.78;2.22;;;30.00;82.90;;;;;;1900845;75;21118;-81
2022/06/20 11:26:16;;;;;;;3.42;2.22;;;30.20;82.00;;;;;;1906287;75;21149;-81
2022/06/20 11:32:30;;;;;;;4.10;2.10;;;30.30;81.70;;;;;;1953457;72;22617;-81
2022/06/20 11:35:50;;;;;;;5.35;2.33;;;30.40;81.80;;;;;;1921884;74;21136;-81
2022/06/20 11:39:35;;;;;;;4.08;2.20;;;30.40;81.50;;;;;;1917124;75;21045;-81
2022/06/20 11:42:49;;;;;;;5.60;2.45;;;30.40;81.30;;;;;;1917114;73;21222;-81
2022/06/20 11:46:24;;;;;;;3.47;2.12;;;30.40;81.20;;;;;;1917297;73;21542;-81
2022/06/20 11:49:22;;;;;;;5.47;2.25;;;30.60;81.20;;;;;;1917782;75;21572;-81
2022/06/20 11:52:17;;;;;;;5.97;2.50;;;30.50;81.00;;;;;;1917600;75;21219;-80
2022/06/20 11:55:14;;;;;;;7.03;2.20;;;30.70;80.00;;;;;;1939904;73;21116;-80
2022/06/20 12:01:00;;;;;;;3.80;2.20;;;30.80;78.90;;;;;;1940172;72;22150;-81
2022/06/20 12:04:14;;;;;;;8.83;2.50;;;30.90;79.00;;;;;;1898891;73;21230;-81
2022/06/20 12:07:28;;;;;;;4.42;2.12;;;31.00;79.20;;;;;;1907495;73;21154;-81
2022/06/20 12:10:24;;;;;;;6.25;2.25;;;31.00;78.40;;;;;;1895423;75;21548;-80
2022/06/20 12:13:44;;;;;;;4.42;2.20;;;31.00;78.40;;;;;;1895535;75;21123;-81
2022/06/20 12:16:53;;;;;;;5.17;2.80;;;31.00;78.10;;;;;;1876075;75;21063;-81
2022/06/20 12:23:21;;;;;;;5.42;2.42;;;31.30;77.70;;;;;;1890927;75;21172;-81
2022/06/20 12:26:15;;;;;;;6.12;2.75;;;31.30;77.00;;;;;;1898390;75;21172;-81
2022/06/20 12:29:14;;;;;;;5.03;2.35;;;31.30;76.70;;;;;;1900831;75;21962;-81
2022/06/20 12:32:11;;;;;;;5.15;2.50;;;31.40;75.80;;;;;;1886261;73;21080;-81
2022/06/20 12:35:06;;;;;;;3.87;2.27;;;31.50;75.60;;;;;;1896741;73;21142;-81
2022/06/20 12:38:04;;;;;;;4.97;2.22;;;31.60;75.50;;;;;;1908219;75;21501;-81
2022/06/20 12:40:58;;;;;;;3.95;2.30;;;31.70;74.50;;;;;;1897766;75;21118;-81
2022/06/20 12:43:56;;;;;;;5.90;2.00;;;31.70;75.20;;;;;;1901340;75;21718;-81
2022/06/20 12:47:01;;;;;;;3.77;2.55;;;31.70;74.70;;;;;;1913042;73;21146;-81
2022/06/20 12:50:01;;;;;;;6.83;2.15;;;31.70;74.20;;;;;;1912308;73;21160;-81
2022/06/20 12:53:00;;;;;;;4.42;2.37;;;31.80;74.20;;;;;;1877323;75;21176;-81
2022/06/20 12:56:01;;;;;;;6.08;2.30;;;31.80;73.50;;;;;;1899555;75;21121;-81
2022/06/20 12:59:10;;;;;;;5.33;2.52;;;31.90;73.30;;;;;;1899754;75;22202;-81
2022/06/20 13:02:05;;;;;;;6.15;2.00;;;31.80;73.10;;;;;;1890525;75;21660;-81
2022/06/20 13:05:13;;;;;;;6.08;2.60;;;32.00;72.80;;;;;;1908883;73;21598;-81
2022/06/20 13:08:35;;;;;;;4.72;2.15;;;32.00;72.90;;;;;;1908338;73;21059;-81
2022/06/20 13:11:35;;;;;;;5.80;2.37;;;32.10;72.40;;;;;;1903051;75;21094;-80
2022/06/20 13:17:28;;;;;;;3.40;2.20;;;32.20;71.90;;;;;;1954049;72;22639;-80
2022/06/20 13:20:47;;;;;;;8.90;2.52;;;32.30;72.00;;;;;;1906698;75;21122;-80
2022/06/20 13:24:10;;;;;;;2.52;2.15;;;32.50;71.00;;;;;;1906636;75;21114;-80
2022/06/20 13:27:11;;;;;;;6.85;2.47;;;32.50;70.60;;;;;;1906386;75;21046;-80
2022/06/20 13:30:24;;;;;;;5.45;2.67;;;32.50;70.50;;;;;;1884368;75;21130;-79
2022/06/20 13:33:20;;;;;;;4.78;2.25;;;32.50;70.50;;;;;;1884504;76;21086;-79
2022/06/20 13:36:24;;;;;;;4.55;2.50;;;32.40;70.20;;;;;;1898145;75;21181;-79
2022/06/20 13:39:21;;;;;;;3.33;2.30;;;32.60;69.70;;;;;;1884675;75;21701;-79
2022/06/20 13:42:17;;;;;;;6.25;2.40;;;32.70;69.70;;;;;;1906936;75;21117;-80
2022/06/20 13:45:15;;;;;;;4.00;2.40;;;32.90;69.40;;;;;;1887646;75;21047;-81
2022/06/20 13:48:13;;;;;;;8.10;2.60;;;33.10;69.00;;;;;;1896965;75;21111;-81
2022/06/20 13:51:11;;;;;;;5.58;2.40;;;33.10;68.70;;;;;;1920201;73;21047;-80
2022/06/20 13:54:08;;;;;;;5.42;2.47;;;33.40;68.20;;;;;;1937561;73;21605;-81
2022/06/20 13:57:04;;;;;;;3.40;2.10;;;33.40;68.10;;;;;;1897026;73;21635;-80
2022/06/20 14:00:04;;;;;;;4.70;2.20;;;33.60;67.80;;;;;;1904323;73;21141;-81
2022/06/20 14:03:17;;;;;;;6.45;2.50;;;33.70;67.00;;;;;;1891967;73;21228;-80
2022/06/20 14:06:14;;;;;;;4.03;2.20;;;34.00;66.40;;;;;;1887585;75;21112;-81
2022/06/20 14:09:06;;;;;;;6.33;2.25;;;34.20;65.90;;;;;;1901081;75;21135;-80
2022/06/20 14:12:02;;;;;;;3.90;2.47;;;34.30;65.30;;;;;;1884596;75;21192;-81
2022/06/20 14:14:58;;;;;;;6.80;2.50;;;34.40;64.40;;;;;;1906820;75;21058;-81
2022/06/20 14:17:55;;;;;;;7.17;2.85;;;34.50;64.80;;;;;;1915329;74;21109;-81
2022/06/20 14:20:53;;;;;;;3.87;2.35;;;34.70;64.40;;;;;;1894279;74;21061;-80
2022/06/20 14:23:49;;;;;;;7.00;2.30;;;34.90;63.80;;;;;;1911306;74;21098;-80
2022/06/20 14:26:42;;;;;;;3.85;2.37;;;34.80;63.30;;;;;;1910993;73;21050;-80
2022/06/20 14:29:38;;;;;;;5.10;2.40;;;34.70;63.50;;;;;;1902633;73;21210;-80
2022/06/20 14:32:33;;;;;;;2.37;2.17;;;34.90;62.90;;;;;;1911318;73;21138;-80
2022/06/20 14:38:17;;;;;;;7.03;2.85;;;35.00;62.00;;;;;;1960684;72;22064;-80
2022/06/20 14:41:42;;;;;;;3.22;2.50;;;35.00;61.40;;;;;;1932320;73;21098;-81
2022/06/20 14:44:57;;;;;;;6.05;2.30;;;35.20;61.50;;;;;;1917538;75;21612;-80
2022/06/20 14:50:44;;;;;;;3.02;2.27;;;35.20;60.50;;;;;;1939220;72;22194;-80
2022/06/20 14:53:57;;;;;;;4.08;2.20;;;35.20;60.10;;;;;;1900304;75;21075;-81
2022/06/20 14:57:16;;;;;;;3.95;2.47;;;35.40;59.80;;;;;;1891563;73;21181;-81
2022/06/20 15:00:25;;;;;;;3.42;2.47;;;35.70;59.70;;;;;;1906298;73;21150;-80
2022/06/20 15:03:41;;;;;;;3.70;2.37;;;36.00;59.10;;;;;;1908291;75;21095;-81
2022/06/20 15:06:38;;;;;;;4.78;2.67;;;36.20;58.10;;;;;;1884750;75;21062;-80
2022/06/20 15:09:30;;;;;;;;;;;36.20;57.80;;;;;;1903654;75;21073;-81
2022/06/20 15:12:31;;;;;;;3.30;2.27;;;36.00;57.70;;;;;;1892981;75;20119;-81
2022/06/20 15:15:30;;;;;;;8.65;2.70;;;36.20;57.70;;;;;;1884390;75;21043;-81
2022/06/20 15:21:10;;;;;;;3.85;2.42;;;36.40;56.10;;;;;;1932957;72;38348;-80
2022/06/20 15:24:31;;;;;;;4.35;2.30;;;36.20;56.00;;;;;;1920703;73;21548;-81
2022/06/20 15:27:44;;;;;;;6.28;2.55;;;36.00;55.90;;;;;;1922063;73;21176;-81
2022/06/20 15:30:40;;;;;;;4.33;2.08;;;36.40;55.70;;;;;;1928072;73;21129;-81
2022/06/20 15:33:52;;;;;;;3.58;1.92;;;36.60;55.20;;;;;;1917570;75;21015;-81
2022/06/20 15:36:46;;;;;;;7.28;2.35;;;36.70;54.40;;;;;;1917585;75;21122;-81
2022/06/20 15:39:43;;;;;;;3.55;2.27;;;36.80;54.40;;;;;;1930131;73;21164;-81
2022/06/20 15:42:40;;;;;;;;;;;36.70;54.20;;;;;;1922734;73;21121;-80
2022/06/20 15:45:35;;;;;;;4.70;2.22;;;36.90;53.60;;;;;;1917183;75;20144;-80
2022/06/20 15:48:30;;;;;;;4.00;2.22;;;37.20;53.60;;;;;;1939831;73;21079;-80
2022/06/20 15:51:26;;;;;;;3.15;1.98;;;37.00;53.10;;;;;;1933462;73;21066;-80
2022/06/20 15:54:28;;;;;;;2.40;2.17;;;37.30;52.90;;;;;;1931598;73;21172;-80
2022/06/20 15:57:25;;;;;;;8.75;2.45;;;37.20;52.40;;;;;;1918043;73;21057;-81
2022/06/20 16:00:20;;;;;;;4.05;2.30;;;37.40;51.60;;;;;;1923005;73;21147;-80
2022/06/20 16:06:29;;;;;;;6.15;2.70;;;37.40;51.10;;;;;;1958252;72;22787;-79
2022/06/20 16:09:45;;;;;;;6.10;2.70;;;37.50;51.20;;;;;;1907634;75;21104;-79
2022/06/20 16:12:59;;;;;;;4.28;2.58;;;37.80;51.00;;;;;;1908189;73;21027;-79
2022/06/20 16:15:52;;;;;;;2.62;2.05;;;37.80;50.40;;;;;;1903114;75;21094;-80
2022/06/20 16:19:06;;;;;;;5.78;2.40;;;37.70;50.20;;;;;;1899497;75;21201;-80
2022/06/20 16:22:00;;;;;;;6.55;2.20;;;37.80;49.80;;;;;;1897883;75;21047;-81
2022/06/20 16:24:58;;;;;;;5.33;2.20;;;37.50;49.90;;;;;;1891726;75;21107;-81
2022/06/20 16:30:40;;;;;;;2.50;2.00;;;37.50;50.10;;;;;;1953408;72;22215;-85
2022/06/20 16:33:52;;;;;;;3.85;2.60;;;37.70;49.50;;;;;;1899907;74;21106;-89
2022/06/20 16:37:07;;;;;;;3.67;2.20;;;37.60;49.50;;;;;;1904785;75;21095;-80
2022/06/20 16:39:58;;;;;;;;;;;37.50;49.50;;;;;;1903287;75;21105;-80
2022/06/20 16:42:52;;;;;;;3.62;2.22;;;37.70;49.20;;;;;;1917950;75;20144;-88
2022/06/20 16:45:50;;;;;;;3.87;2.20;;;37.80;49.30;;;;;;1895411;75;21091;-86
2022/06/20 16:49:02;;;;;;;;;;;37.60;48.80;;;;;;1898381;75;21164;-86
2022/06/20 16:51:57;;;;;;;3.65;2.40;;;37.60;49.00;;;;;;1895877;75;20142;-87
2022/06/20 16:54:53;;;;;;;3.58;2.10;;;37.40;49.20;;;;;;1898965;75;21124;-86
2022/06/20 16:57:47;;;;;;;3.67;2.00;;;37.30;49.50;;;;;;1884199;76;21209;-87
2022/06/20 17:00:42;;;;;;;5.03;2.17;;;37.10;49.70;;;;;;1895689;75;21094;-86
2022/06/20 17:03:36;;;;;;;4.33;1.98;;;37.20;49.10;;;;;;1894840;75;21174;-87
2022/06/20 17:06:32;;;;;;;4.62;2.42;;;37.70;49.00;;;;;;1893918;75;21173;-86
2022/06/20 17:09:29;;;;;;;5.35;2.40;;;37.70;48.80;;;;;;1900780;75;21109;-86
2022/06/20 17:12:25;;;;;;;6.20;2.30;;;37.80;48.60;;;;;;1885083;76;21063;-87
2022/06/20 17:15:27;;;;;;;5.42;2.30;;;38.10;48.70;;;;;;1895884;75;21132;-80
2022/06/20 17:18:25;;;;;;;3.65;2.10;;;37.90;48.70;;;;;;1895679;75;21085;-80
2022/06/20 17:21:19;;;;;;;3.92;2.27;;;37.30;49.30;;;;;;1895685;75;21143;-80
2022/06/20 17:27:06;;;;;;;5.08;2.50;;;36.80;49.90;;;;;;1957640;72;22150;-86
2022/06/20 17:30:23;;;;;;;6.42;2.33;;;36.70;50.10;;;;;;1897783;75;21082;-86
2022/06/20 17:33:36;;;;;;;6.08;2.40;;;36.30;50.60;;;;;;1902005;75;21474;-87
2022/06/20 17:36:34;;;;;;;3.77;2.10;;;35.70;51.60;;;;;;1884858;76;21538;-86
2022/06/20 17:39:48;;;;;;;3.80;2.30;;;35.60;51.40;;;;;;1898899;75;21140;-86
2022/06/20 17:42:43;;;;;;;5.10;2.40;;;35.40;51.70;;;;;;1922450;74;21102;-80
2022/06/20 17:45:38;;;;;;;5.85;2.20;;;35.10;52.90;;;;;;1921763;74;21151;-80
2022/06/20 17:48:41;;;;;;;4.33;2.02;;;35.00;52.30;;;;;;1917789;74;21121;-80
2022/06/20 17:51:38;;;;;;;3.65;2.00;;;34.80;52.40;;;;;;1920090;74;21056;-80
2022/06/20 17:54:29;;;;;;;;;;;34.60;52.90;;;;;;1887423;76;21550;-80
2022/06/20 17:57:25;;;;;;;5.12;1.95;;;34.50;53.00;;;;;;1892701;75;20119;-80
2022/06/20 18:00:21;;;;;;;3.90;2.00;;;34.40;54.10;;;;;;1916312;75;21483;-80
2022/06/20 18:03:16;;;;;;;7.50;2.10;;;34.20;53.50;;;;;;1921873;74;21046;-81
2022/06/20 18:06:11;;;;;;;4.72;2.25;;;34.20;53.40;;;;;;1921376;74;21050;-81
2022/06/20 18:09:09;;;;;;;5.05;1.90;;;34.20;53.60;;;;;;1897017;75;21114;-80
2022/06/20 18:12:04;;;;;;;3.15;1.92;;;34.20;53.70;;;;;;1914233;75;21202;-80
2022/06/20 18:14:59;;;;;;;2.58;1.90;;;34.10;53.80;;;;;;1917284;74;21096;-80
2022/06/20 18:17:55;;;;;;;4.17;2.00;;;34.10;53.80;;;;;;1923901;74;21104;-80
2022/06/20 18:20:50;;;;;;;5.78;1.90;;;34.00;53.70;;;;;;1921570;74;21101;-80
2022/06/20 18:23:44;;;;;;;5.58;2.10;;;33.90;53.80;;;;;;1900073;75;21094;-80
2022/06/20 18:26:39;;;;;;;3.35;2.00;;;33.70;54.00;;;;;;1903503;74;21081;-80
2022/06/20 18:29:32;;;;;;;3.17;1.85;;;33.70;54.00;;;;;;1868557;76;21050;-80
2022/06/20 18:32:26;;;;;;;5.37;1.80;;;33.60;54.40;;;;;;1934103;74;21527;-81
2022/06/20 18:35:20;;;;;;;2.58;1.70;;;33.60;54.40;;;;;;1856808;77;21413;-80
2022/06/20 18:38:22;;;;;;;3.52;1.95;;;33.30;54.50;;;;;;1933080;74;21094;-80
2022/06/20 18:41:21;;;;;;;3.90;2.47;;;32.90;55.10;;;;;;1856340;77;21211;-79
2022/06/20 18:44:13;;;;;;;4.00;1.92;;;32.80;55.10;;;;;;1933491;74;21066;-80
2022/06/20 18:47:22;;;;;;;5.53;2.02;;;32.50;55.60;;;;;;1856067;77;21065;-80
2022/06/20 18:50:28;;;;;;;6.62;1.95;;;32.20;56.30;;;;;;1933593;74;21106;-80
2022/06/20 18:53:28;;;;;;;2.87;2.02;;;31.80;56.20;;;;;;1856320;77;21058;-79
2022/06/20 18:56:47;;;;;;;4.70;2.00;;;31.60;56.40;;;;;;1921030;74;21120;-80
2022/06/20 18:59:57;;;;;;;2.95;1.62;;;31.60;56.80;;;;;;1933107;74;21144;-85
2022/06/20 19:02:57;;;;;;;3.27;1.47;;;31.40;56.80;;;;;;1933599;74;21516;-85
2022/06/20 19:06:15;;;;;;;6.03;2.08;;;31.30;56.90;;;;;;1908912;74;21091;-85
2022/06/20 19:09:30;;;;;;;2.55;1.60;;;31.10;57.10;;;;;;1926493;74;21225;-85
2022/06/20 19:12:37;;;;;;;5.12;1.95;;;31.10;56.80;;;;;;1909659;74;21143;-84
2022/06/20 19:15:37;;;;;;;7.45;1.98;;;30.80;57.20;;;;;;1926490;74;21083;-84
2022/06/20 19:19:10;;;;;;;4.80;1.98;;;30.70;57.40;;;;;;1905295;74;21047;-84
2022/06/20 19:22:14;;;;;;;5.20;2.15;;;30.60;57.90;;;;;;1928214;74;21178;-84
2022/06/20 19:25:11;;;;;;;4.80;1.80;;;30.30;58.50;;;;;;1907196;74;21062;-85